createdAt,value
2018-05-31T00:00:42.741Z,58.40
2018-05-31T00:03:13.311Z,59.46
2018-05-31T00:05:42.412Z,59.51
2018-05-31T00:08:11.622Z,58.87
2018-05-31T00:10:42.270Z,57.72
2018-05-31T00:13:13.536Z,57.50
2018-05-31T00:15:42.661Z,57.42
2018-05-31T00:18:11.913Z,57.30
2018-05-31T00:20:41.825Z,57.11
2018-05-31T00:23:11.710Z,56.61
2018-05-31T00:25:41.012Z,56.72
2018-05-31T00:28:10.389Z,57.16
2018-05-31T00:30:39.867Z,57.08
2018-05-31T00:33:08.982Z,57.63
2018-05-31T00:35:38.207Z,57.90
2018-05-31T00:38:07.377Z,58.48
2018-05-31T00:40:37.542Z,58.94
2018-05-31T00:43:06.649Z,59.25
2018-05-31T00:45:36.506Z,59.88
2018-05-31T00:48:05.877Z,59.92
2018-05-31T00:50:35.957Z,60.51
2018-05-31T00:53:05.115Z,60.91
2018-05-31T00:55:52.119Z,61.07
2018-05-31T00:58:21.425Z,61.68
2018-05-31T01:00:51.037Z,61.82
2018-05-31T01:03:20.248Z,62.16
2018-05-31T01:05:49.364Z,62.37
2018-05-31T01:08:18.466Z,62.61
2018-05-31T01:10:47.626Z,62.95
2018-05-31T01:13:16.815Z,63.32
2018-05-31T01:15:46.006Z,64.12
2018-05-31T01:18:15.180Z,64.09
2018-05-31T01:20:45.092Z,64.84
2018-05-31T01:23:14.255Z,65.14
2018-05-31T01:25:43.375Z,65.61
2018-05-31T01:28:13.454Z,65.79
2018-05-31T01:30:42.821Z,65.90
2018-05-31T01:33:13.930Z,66.19
2018-05-31T01:35:43.053Z,66.12
2018-05-31T01:38:32.385Z,66.49
2018-05-31T01:41:01.784Z,66.66
2018-05-31T01:43:30.960Z,66.72
2018-05-31T01:46:00.902Z,66.74
2018-05-31T01:48:30.165Z,67.13
2018-05-31T01:50:59.287Z,67.33
2018-05-31T01:53:28.386Z,66.79
2018-05-31T01:55:57.713Z,66.81
2018-05-31T01:58:27.595Z,66.84
2018-05-31T02:00:56.729Z,66.87
2018-05-31T02:03:25.857Z,67.42
2018-05-31T02:05:55.897Z,67.39
2018-05-31T02:08:25.036Z,67.05
2018-05-31T02:10:55.685Z,66.95
2018-05-31T02:13:25.554Z,67.00
2018-05-31T02:15:55.654Z,66.87
2018-05-31T02:18:25.747Z,67.52
2018-05-31T02:20:55.810Z,67.84
2018-05-31T02:23:25.924Z,68.63
2018-05-31T02:25:55.044Z,68.14
2018-05-31T02:28:24.369Z,67.71
2018-05-31T02:30:54.401Z,67.65
2018-05-31T02:33:24.325Z,67.36
2018-05-31T02:35:53.434Z,67.86
2018-05-31T02:38:22.533Z,67.54
2018-05-31T02:40:51.842Z,67.28
2018-05-31T02:43:22.270Z,67.32
2018-05-31T02:45:51.413Z,67.02
2018-05-31T02:48:20.520Z,66.81
2018-05-31T02:50:50.397Z,66.83
2018-05-31T02:53:19.566Z,66.69
2018-05-31T02:55:48.682Z,66.87
2018-05-31T02:58:17.851Z,67.00
2018-05-31T03:00:48.109Z,67.19
2018-05-31T03:03:17.223Z,67.21
2018-05-31T03:05:47.098Z,67.54
2018-05-31T03:08:17.158Z,67.35
2018-05-31T03:10:48.146Z,67.43
2018-05-31T03:13:18.190Z,67.37
2018-05-31T03:15:47.433Z,67.18
2018-05-31T03:18:18.384Z,67.10
2018-05-31T03:20:47.602Z,67.57
2018-05-31T03:23:16.697Z,69.09
2018-05-31T03:25:45.812Z,69.75
2018-05-31T03:28:14.908Z,69.28
2018-05-31T03:30:44.849Z,68.99
2018-05-31T03:33:13.928Z,69.13
2018-05-31T03:35:43.944Z,68.86
2018-05-31T03:38:14.510Z,69.08
2018-05-31T03:40:44.465Z,69.49
2018-05-31T03:43:14.662Z,68.77
2018-05-31T03:45:44.679Z,68.68
2018-05-31T03:48:15.545Z,67.89
2018-05-31T03:50:44.692Z,68.99
2018-05-31T03:53:13.812Z,69.37
2018-05-31T03:55:43.676Z,69.98
2018-05-31T03:58:13.666Z,70.48
2018-05-31T04:00:42.787Z,70.89
2018-05-31T04:03:12.132Z,70.54
2018-05-31T04:05:41.234Z,69.76
2018-05-31T04:08:11.153Z,69.10
2018-05-31T04:10:41.013Z,68.71
2018-05-31T04:13:10.438Z,69.00
2018-05-31T04:15:39.559Z,69.25
2018-05-31T04:18:09.462Z,68.55
2018-05-31T04:20:38.549Z,67.71
2018-05-31T04:23:07.650Z,68.21
2018-05-31T04:25:37.535Z,67.74
2018-05-31T04:28:06.637Z,67.58
2018-05-31T04:30:35.792Z,67.66
2018-05-31T04:33:04.921Z,68.22
2018-05-31T04:35:34.393Z,68.78
2018-05-31T04:38:03.501Z,69.18
2018-05-31T04:40:33.546Z,68.23
2018-05-31T04:43:02.673Z,67.38
2018-05-31T04:45:32.555Z,67.09
2018-05-31T04:48:01.660Z,67.15
2018-05-31T04:50:30.930Z,67.46
2018-05-31T04:53:00.354Z,67.29
2018-05-31T04:55:29.476Z,66.97
2018-05-31T04:57:59.447Z,66.30
2018-05-31T05:00:28.534Z,66.58
2018-05-31T05:02:57.931Z,66.25
2018-05-31T05:05:28.109Z,65.91
2018-05-31T05:07:57.980Z,65.73
2018-05-31T05:10:28.409Z,65.63
2018-05-31T05:12:57.498Z,66.02
2018-05-31T05:15:27.459Z,65.87
2018-05-31T05:17:56.740Z,65.64
2018-05-31T05:20:25.868Z,65.52
2018-05-31T05:22:55.728Z,65.89
2018-05-31T05:25:25.825Z,65.83
2018-05-31T05:27:55.680Z,66.47
2018-05-31T05:30:24.796Z,66.33
2018-05-31T05:32:54.173Z,65.99
2018-05-31T05:35:23.298Z,65.27
2018-05-31T05:37:52.426Z,65.98
2018-05-31T05:40:22.494Z,65.36
2018-05-31T05:42:51.779Z,65.65
2018-05-31T05:45:21.962Z,66.34
2018-05-31T05:47:51.827Z,67.13
2018-05-31T05:50:21.211Z,66.08
2018-05-31T05:52:50.337Z,65.63
2018-05-31T05:55:19.502Z,65.47
2018-05-31T05:57:49.012Z,65.00
2018-05-31T06:00:19.176Z,65.18
2018-05-31T06:02:48.283Z,64.69
2018-05-31T06:05:18.547Z,65.51
2018-05-31T06:07:47.954Z,65.69
2018-05-31T06:10:18.011Z,64.65
2018-05-31T06:12:47.111Z,64.28
2018-05-31T06:15:16.377Z,64.31
2018-05-31T06:17:45.521Z,64.25
2018-05-31T06:20:15.389Z,64.51
2018-05-31T06:22:44.577Z,64.62
2018-05-31T06:25:15.011Z,64.04
2018-05-31T06:27:45.181Z,64.14
2018-05-31T06:30:15.134Z,64.27
2018-05-31T06:32:44.753Z,63.80
2018-05-31T06:35:13.929Z,64.12
2018-05-31T06:37:43.367Z,63.70
2018-05-31T06:40:12.508Z,63.58
2018-05-31T06:42:42.923Z,63.60
2018-05-31T06:45:14.034Z,63.40
2018-05-31T06:47:44.090Z,63.02
2018-05-31T06:50:14.039Z,62.82
2018-05-31T06:52:43.121Z,62.85
2018-05-31T06:55:12.599Z,62.29
2018-05-31T06:57:41.708Z,62.08
2018-05-31T07:00:11.580Z,62.29
2018-05-31T07:02:42.221Z,62.51
2018-05-31T07:05:11.556Z,62.01
2018-05-31T07:07:41.903Z,61.60
2018-05-31T07:10:11.077Z,61.42
2018-05-31T07:12:41.455Z,60.60
2018-05-31T07:15:10.665Z,60.62
2018-05-31T07:17:40.020Z,60.42
2018-05-31T07:20:09.925Z,60.07
2018-05-31T07:22:39.076Z,59.85
2018-05-31T07:25:08.168Z,59.82
2018-05-31T07:27:38.245Z,60.57
2018-05-31T07:30:07.583Z,60.19
2018-05-31T07:32:36.706Z,59.71
2018-05-31T07:35:06.272Z,59.05
2018-05-31T07:37:35.361Z,59.49
2018-05-31T07:40:04.466Z,58.70
2018-05-31T07:42:34.124Z,58.73
2018-05-31T07:45:03.238Z,58.12
2018-05-31T07:47:32.538Z,58.59
2018-05-31T07:50:02.465Z,58.53
2018-05-31T07:52:32.526Z,58.05
2018-05-31T07:55:01.630Z,57.96
2018-05-31T07:57:30.762Z,57.77
2018-05-31T08:00:00.710Z,58.02
2018-05-31T08:02:31.207Z,57.44
2018-05-31T08:05:00.298Z,57.64
2018-05-31T08:07:29.864Z,57.70
2018-05-31T08:09:58.954Z,58.59
2018-05-31T08:12:28.079Z,58.70
2018-05-31T08:14:57.172Z,58.71
2018-05-31T08:17:26.298Z,58.12
2018-05-31T08:19:55.444Z,57.80
2018-05-31T08:22:24.560Z,58.12
2018-05-31T08:24:53.705Z,58.50
2018-05-31T08:27:22.939Z,58.55
2018-05-31T08:29:52.060Z,57.99
2018-05-31T08:32:21.147Z,57.97
2018-05-31T08:34:51.076Z,57.69
2018-05-31T08:37:20.920Z,57.27
2018-05-31T08:39:50.063Z,58.00
2018-05-31T08:42:20.103Z,59.12
2018-05-31T08:44:50.125Z,57.61
2018-05-31T08:47:21.057Z,57.64
2018-05-31T08:49:51.113Z,56.82
2018-05-31T08:52:20.297Z,55.84
2018-05-31T08:54:49.756Z,57.22
2018-05-31T08:57:21.460Z,57.29
2018-05-31T08:59:51.324Z,58.30
2018-05-31T09:02:20.747Z,56.06
2018-05-31T09:04:50.644Z,58.28
2018-05-31T09:07:19.774Z,57.08
2018-05-31T09:09:50.096Z,56.62
2018-05-31T09:12:19.251Z,57.43
2018-05-31T09:14:48.733Z,56.93
2018-05-31T09:17:17.866Z,56.10
2018-05-31T09:19:48.612Z,56.50
2018-05-31T09:22:19.278Z,56.63
2018-05-31T09:24:49.235Z,56.23
2018-05-31T09:27:18.403Z,55.38
2018-05-31T09:29:47.731Z,55.58
2018-05-31T09:32:17.783Z,55.71
2018-05-31T09:34:47.683Z,55.22
2018-05-31T09:37:17.125Z,55.90
2018-05-31T09:39:46.268Z,55.64
2018-05-31T09:42:15.389Z,56.49
2018-05-31T09:44:45.348Z,56.02
2018-05-31T09:47:15.201Z,56.52
2018-05-31T09:49:44.339Z,55.88
2018-05-31T09:52:14.446Z,54.45
2018-05-31T09:54:44.550Z,55.81
2018-05-31T09:57:14.518Z,54.88
2018-05-31T09:59:43.653Z,54.73
2018-05-31T10:02:12.768Z,54.19
2018-05-31T10:04:42.652Z,55.06
2018-05-31T10:07:11.780Z,53.25
2018-05-31T10:09:41.742Z,52.21
2018-05-31T10:12:10.848Z,52.21
2018-05-31T10:14:40.071Z,51.49
2018-05-31T10:17:10.940Z,52.08
2018-05-31T10:19:40.026Z,52.64
2018-05-31T10:22:10.020Z,51.76
2018-05-31T10:24:39.175Z,51.72
2018-05-31T10:27:08.304Z,51.76
2018-05-31T10:29:37.439Z,50.87
2018-05-31T10:32:06.570Z,50.38
2018-05-31T10:34:35.721Z,50.35
2018-05-31T10:37:04.874Z,49.69
2018-05-31T10:39:34.005Z,49.33
2018-05-31T10:42:03.138Z,50.54
2018-05-31T10:44:32.994Z,50.36
2018-05-31T10:47:02.894Z,50.39
2018-05-31T10:49:32.074Z,51.19
2018-05-31T10:52:01.203Z,51.00
2018-05-31T10:54:30.322Z,49.51
2018-05-31T10:57:00.235Z,50.56
2018-05-31T10:59:29.338Z,50.35
2018-05-31T11:01:59.222Z,50.63
2018-05-31T11:04:28.359Z,49.03
2018-05-31T11:06:58.266Z,50.39
2018-05-31T11:09:27.407Z,49.94
2018-05-31T11:11:56.497Z,50.56
2018-05-31T11:14:27.295Z,49.03
2018-05-31T11:16:57.466Z,49.93
2018-05-31T11:19:26.615Z,48.61
2018-05-31T11:21:55.706Z,47.76
2018-05-31T11:24:25.636Z,48.61
2018-05-31T11:26:55.490Z,49.01
2018-05-31T11:29:24.648Z,49.06
2018-05-31T11:31:54.804Z,48.42
2018-05-31T11:34:23.945Z,47.60
2018-05-31T11:36:53.063Z,47.37
2018-05-31T11:39:22.451Z,46.55
2018-05-31T11:41:52.669Z,45.66
2018-05-31T11:44:22.563Z,46.17
2018-05-31T11:46:52.449Z,45.82
2018-05-31T11:49:22.007Z,46.26
2018-05-31T11:51:51.277Z,45.72
2018-05-31T11:54:20.390Z,46.62
2018-05-31T11:56:50.533Z,43.69
2018-05-31T11:59:19.675Z,44.98
2018-05-31T12:01:48.791Z,44.56
2018-05-31T12:04:18.175Z,44.39
2018-05-31T12:06:47.338Z,44.12
2018-05-31T12:09:17.992Z,43.78
2018-05-31T12:11:47.176Z,43.56
2018-05-31T12:14:17.013Z,44.01
2018-05-31T12:16:46.165Z,44.82
2018-05-31T12:19:15.449Z,46.01
2018-05-31T12:21:46.447Z,46.79
2018-05-31T12:24:15.671Z,47.74
2018-05-31T12:26:44.809Z,48.67
2018-05-31T12:29:14.732Z,49.32
2018-05-31T12:31:43.862Z,49.66
2018-05-31T12:34:12.966Z,50.30
2018-05-31T12:36:42.885Z,50.57
2018-05-31T12:39:12.043Z,50.76
2018-05-31T12:41:41.553Z,50.20
2018-05-31T12:44:10.808Z,49.48
2018-05-31T12:46:39.917Z,47.98
2018-05-31T12:49:09.826Z,49.20
2018-05-31T12:51:40.727Z,48.92
2018-05-31T12:54:11.260Z,49.63
2018-05-31T12:56:40.403Z,47.70
2018-05-31T12:59:10.792Z,47.61
2018-05-31T13:01:39.956Z,48.27
2018-05-31T13:04:09.093Z,46.14
2018-05-31T13:06:40.057Z,44.52
2018-05-31T13:09:10.171Z,46.44
2018-05-31T13:11:39.286Z,45.23
2018-05-31T13:14:08.580Z,45.21
2018-05-31T13:16:38.461Z,44.76
2018-05-31T13:19:07.919Z,45.34
2018-05-31T13:21:37.810Z,44.83
2018-05-31T13:24:06.913Z,44.69
2018-05-31T13:26:36.817Z,45.53
2018-05-31T13:29:06.828Z,47.46
2018-05-31T13:31:36.928Z,48.71
2018-05-31T13:34:06.072Z,49.13
2018-05-31T13:36:35.173Z,48.49
2018-05-31T13:39:04.466Z,49.24
2018-05-31T13:41:33.567Z,49.80
2018-05-31T13:44:02.885Z,50.18
2018-05-31T13:46:31.993Z,50.53
2018-05-31T13:49:01.130Z,50.49
2018-05-31T13:51:30.257Z,50.30
2018-05-31T13:53:59.387Z,49.89
2018-05-31T13:56:28.789Z,49.43
2018-05-31T13:58:58.689Z,50.49
2018-05-31T14:01:27.845Z,51.65
2018-05-31T14:03:58.657Z,50.30
2018-05-31T14:06:27.787Z,50.51
2018-05-31T14:08:58.712Z,50.50
2018-05-31T14:11:28.687Z,51.73
2018-05-31T14:13:57.825Z,50.93
2018-05-31T14:16:28.034Z,51.17
2018-05-31T14:18:57.965Z,50.87
2018-05-31T14:21:28.181Z,51.53
2018-05-31T14:23:58.080Z,51.11
2018-05-31T14:26:27.957Z,51.00
2018-05-31T14:28:58.072Z,50.37
2018-05-31T14:31:27.261Z,50.49
2018-05-31T14:33:56.371Z,48.89
2018-05-31T14:36:25.826Z,47.87
2018-05-31T14:38:57.512Z,49.06
2018-05-31T14:41:26.750Z,47.38
2018-05-31T14:43:56.793Z,47.81
2018-05-31T14:46:26.684Z,47.60
2018-05-31T14:48:55.787Z,48.04
2018-05-31T14:51:26.855Z,47.64
2018-05-31T14:53:56.753Z,46.89
2018-05-31T14:56:25.863Z,47.15
2018-05-31T14:58:55.245Z,47.85
2018-05-31T15:01:25.603Z,49.50
2018-05-31T15:03:54.731Z,48.91
2018-05-31T15:06:23.868Z,48.68
2018-05-31T15:08:53.766Z,49.26
2018-05-31T15:11:22.865Z,48.17
2018-05-31T15:13:52.942Z,48.51
2018-05-31T15:16:22.147Z,48.04
2018-05-31T15:18:51.346Z,47.36
2018-05-31T15:21:20.483Z,48.74
2018-05-31T15:23:49.617Z,48.70
2018-05-31T15:26:18.728Z,47.77
2018-05-31T15:28:47.878Z,48.50
2018-05-31T15:31:17.753Z,49.07
2018-05-31T15:33:47.249Z,47.98
2018-05-31T15:36:16.363Z,48.62
2018-05-31T15:38:45.478Z,48.34
2018-05-31T15:41:15.182Z,48.58
2018-05-31T15:43:44.318Z,48.70
2018-05-31T15:46:15.475Z,49.11
2018-05-31T15:48:45.367Z,48.53
2018-05-31T15:51:15.108Z,47.63
2018-05-31T15:53:44.216Z,47.40
2018-05-31T15:56:13.355Z,48.96
2018-05-31T15:58:42.692Z,46.97
2018-05-31T16:01:11.815Z,47.27
2018-05-31T16:03:40.932Z,46.75
2018-05-31T16:06:10.072Z,45.89
2018-05-31T16:08:40.131Z,45.30
2018-05-31T16:11:09.209Z,44.49
2018-05-31T16:13:38.399Z,44.41
2018-05-31T16:16:07.523Z,45.80
2018-05-31T16:18:36.647Z,45.92
2018-05-31T16:21:06.557Z,44.94
2018-05-31T16:23:36.465Z,45.53
2018-05-31T16:26:05.577Z,44.85
2018-05-31T16:28:35.505Z,44.65
2018-05-31T16:31:04.593Z,45.51
2018-05-31T16:33:33.735Z,45.93
2018-05-31T16:36:04.608Z,44.73
2018-05-31T16:38:33.714Z,45.39
2018-05-31T16:41:02.826Z,45.96
2018-05-31T16:43:31.922Z,45.20
2018-05-31T16:46:02.000Z,45.51
2018-05-31T16:48:31.218Z,45.04
2018-05-31T16:51:00.340Z,44.82
2018-05-31T16:53:30.211Z,44.50
2018-05-31T16:55:59.332Z,44.19
2018-05-31T16:58:29.235Z,43.83
2018-05-31T17:00:59.128Z,43.94
2018-05-31T17:03:28.243Z,43.63
2018-05-31T17:05:57.372Z,42.44
2018-05-31T17:08:26.899Z,40.88
2018-05-31T17:10:56.968Z,38.99
2018-05-31T17:13:26.305Z,37.23
2018-05-31T17:15:55.428Z,36.17
2018-05-31T17:18:24.698Z,36.39
2018-05-31T17:20:53.795Z,36.38
2018-05-31T17:23:23.396Z,35.90
2018-05-31T17:25:53.261Z,37.06
2018-05-31T17:28:22.421Z,37.42
2018-05-31T17:30:51.737Z,38.88
2018-05-31T17:33:21.052Z,40.90
2018-05-31T17:35:50.275Z,43.44
2018-05-31T17:38:19.571Z,44.76
2018-05-31T17:40:49.436Z,45.26
2018-05-31T17:43:18.731Z,46.44
2018-05-31T17:45:47.869Z,47.10
2018-05-31T17:48:16.982Z,48.26
2018-05-31T17:50:46.926Z,48.86
2018-05-31T17:53:16.041Z,48.59
2018-05-31T17:55:46.134Z,48.81
2018-05-31T17:58:15.334Z,49.15
2018-05-31T18:00:44.693Z,49.43
2018-05-31T18:03:13.840Z,49.32
2018-05-31T18:05:43.889Z,49.77
2018-05-31T18:08:13.017Z,49.34
2018-05-31T18:10:42.142Z,49.65
2018-05-31T18:13:12.085Z,49.86
2018-05-31T18:15:41.190Z,48.58
2018-05-31T18:18:10.334Z,48.59
2018-05-31T18:20:40.283Z,48.31
2018-05-31T18:23:09.372Z,50.36
2018-05-31T18:25:38.708Z,51.06
2018-05-31T18:28:07.937Z,51.91
2018-05-31T18:30:37.209Z,52.83
2018-05-31T18:33:06.830Z,53.31
2018-05-31T18:35:35.965Z,54.11
2018-05-31T18:38:05.403Z,54.50
2018-05-31T18:40:35.307Z,53.72
2018-05-31T18:43:04.441Z,53.11
2018-05-31T18:45:33.571Z,52.48
2018-05-31T18:48:03.489Z,52.84
2018-05-31T18:50:33.406Z,53.44
2018-05-31T18:53:04.345Z,54.50
2018-05-31T18:55:33.384Z,54.70
2018-05-31T18:58:02.529Z,54.99
2018-05-31T19:00:32.648Z,55.23
2018-05-31T19:03:02.787Z,54.44
2018-05-31T19:05:32.040Z,53.58
2018-05-31T19:08:01.335Z,53.40
2018-05-31T19:10:30.598Z,54.05
2018-05-31T19:13:06.233Z,54.63
2018-05-31T19:15:35.561Z,55.26
2018-05-31T19:18:04.799Z,56.33
2018-05-31T19:20:33.883Z,57.01
2018-05-31T19:23:03.034Z,58.64
2018-05-31T19:25:32.129Z,60.25
2018-05-31T19:28:01.461Z,61.18
2018-05-31T19:30:36.180Z,62.15
2018-05-31T19:33:05.563Z,61.54
2018-05-31T19:35:40.225Z,62.54
2018-05-31T19:38:09.378Z,63.62
2018-05-31T19:40:38.742Z,63.03
2018-05-31T19:43:13.515Z,62.64
2018-05-31T19:45:42.632Z,61.54
2018-05-31T19:48:12.233Z,60.86
2018-05-31T19:50:41.787Z,60.69
2018-05-31T19:53:17.183Z,60.98
2018-05-31T19:55:46.586Z,60.69
2018-05-31T19:58:21.010Z,60.43
2018-05-31T20:00:55.863Z,60.00
2018-05-31T20:03:36.222Z,60.27
2018-05-31T20:06:05.351Z,60.82
2018-05-31T20:08:36.339Z,61.09
2018-05-31T20:11:05.501Z,61.14
2018-05-31T20:13:34.659Z,60.92
2018-05-31T20:16:03.780Z,60.56
2018-05-31T20:18:34.112Z,60.53
2018-05-31T20:21:04.009Z,60.77
2018-05-31T20:23:34.051Z,60.93
2018-05-31T20:26:03.166Z,60.62
2018-05-31T20:28:32.305Z,59.83
2018-05-31T20:31:01.463Z,59.30
2018-05-31T20:33:31.479Z,58.84
2018-05-31T20:36:00.769Z,58.33
2018-05-31T20:38:29.951Z,57.87
2018-05-31T20:40:59.842Z,57.65
2018-05-31T20:43:29.717Z,57.28
2018-05-31T20:45:58.838Z,57.43
2018-05-31T20:48:28.181Z,57.63
2018-05-31T20:50:58.322Z,57.49
2018-05-31T20:53:27.493Z,57.64
2018-05-31T20:55:58.386Z,57.60
2018-05-31T20:58:27.688Z,57.97
2018-05-31T21:00:57.145Z,58.37
2018-05-31T21:03:27.135Z,58.18
2018-05-31T21:05:57.059Z,57.92
2018-05-31T21:08:27.165Z,58.25
2018-05-31T21:10:56.438Z,59.16
2018-05-31T21:13:25.550Z,59.59
2018-05-31T21:15:54.713Z,59.61
2018-05-31T21:18:23.800Z,59.54
2018-05-31T21:20:53.217Z,59.69
2018-05-31T21:23:22.333Z,61.60
2018-05-31T21:25:51.435Z,61.80
2018-05-31T21:28:20.592Z,61.09
2018-05-31T21:30:50.381Z,60.55
2018-05-31T21:33:19.543Z,60.08
2018-05-31T21:35:48.651Z,59.56
2018-05-31T21:38:18.733Z,59.55
2018-05-31T21:40:47.901Z,60.00
2018-05-31T21:43:17.042Z,61.04
2018-05-31T21:45:46.164Z,62.42
2018-05-31T21:48:15.923Z,62.31
2018-05-31T21:50:45.069Z,62.81
2018-05-31T21:53:16.502Z,64.03
2018-05-31T21:55:45.615Z,63.38
2018-05-31T21:58:15.761Z,63.47
2018-05-31T22:00:50.307Z,63.98
2018-05-31T22:03:19.689Z,64.77
2018-05-31T22:05:48.809Z,65.39
2018-05-31T22:10:54.316Z,67.18
2018-05-31T22:13:24.299Z,67.77
2018-05-31T22:15:54.237Z,67.96
2018-05-31T22:18:24.873Z,68.58
2018-05-31T22:20:54.017Z,71.90
2018-05-31T22:23:23.559Z,72.42
2018-05-31T22:25:53.440Z,73.80
2018-05-31T22:28:22.860Z,74.74
2018-05-31T22:30:52.264Z,75.04
2018-05-31T22:33:22.151Z,75.37
2018-05-31T22:35:52.113Z,76.39
2018-05-31T22:38:21.486Z,75.51
2018-05-31T22:40:50.809Z,75.30
2018-05-31T22:43:20.410Z,75.58
2018-05-31T22:45:49.502Z,75.75
2018-05-31T22:48:18.650Z,76.42
2018-05-31T22:50:49.031Z,76.73
2018-05-31T22:53:18.229Z,77.75
2018-05-31T22:55:47.364Z,78.15
2018-05-31T22:58:17.523Z,78.21
2018-05-31T23:00:46.633Z,77.97
2018-05-31T23:03:15.924Z,78.35
2018-05-31T23:05:45.023Z,78.24
2018-05-31T23:08:14.160Z,79.49
2018-05-31T23:10:43.297Z,79.77
2018-05-31T23:13:13.460Z,79.39
2018-05-31T23:15:44.236Z,79.34
2018-05-31T23:18:14.144Z,80.00
2018-05-31T23:20:44.000Z,79.31
2018-05-31T23:23:13.123Z,79.69
2018-05-31T23:25:42.298Z,79.28
2018-05-31T23:28:11.406Z,80.35
2018-05-31T23:30:40.515Z,80.48
2018-05-31T23:33:09.893Z,81.07
2018-05-31T23:35:39.034Z,81.06
2018-05-31T23:38:08.128Z,80.68
2018-05-31T23:40:37.209Z,80.48
2018-05-31T23:43:06.328Z,80.57
2018-05-31T23:45:36.234Z,80.68
2018-05-31T23:48:05.339Z,80.11
2018-05-31T23:50:35.534Z,80.08
2018-05-31T23:53:06.129Z,79.98
2018-05-31T23:55:35.335Z,79.84
2018-05-31T23:58:04.553Z,79.60
